Coleharbor, North Dakota
Current Conditions -  °F | °C
As of 10:35 PM on Tuesday 21 Oct 2014 (Local Time) from KHZE Reporting Station
Clear Clear  
Wind Chill: 68°   Ceiling: Unl
Heat Index: 68°   Visibility: 10mi
Dew Point: 48°   Wind: 22mph
Humidity: 49%   Direction: 180°S
Pressure: 29.62"   Gusts: 35mph
Location:  47.54°N, 101.22°W
Report Text: KHZE 220335Z AUTO 18019G30KT 10SM CLR 20/09 A2962 RMK AO2
Loading
Personal Weather Stations






























Interactive Weather Map New forecast layout! Learn more

10-Day Weather Forecast

Advertisements
Track Severe Weather on mobile